createdAt,value
2019-01-21T00:03:49.185Z,18.97
2019-01-21T00:08:57.609Z,21.13
2019-01-21T00:14:05.985Z,22.95
2019-01-21T00:19:14.348Z,22.74
2019-01-21T00:24:22.867Z,22.25
2019-01-21T00:29:31.248Z,22.14
2019-01-21T00:34:39.634Z,21.80
2019-01-21T00:39:46.816Z,22.29
2019-01-21T00:44:55.273Z,20.62
2019-01-21T00:50:03.703Z,22.31
2019-01-21T00:55:12.067Z,19.95
2019-01-21T01:00:20.470Z,20.47
2019-01-21T01:05:28.844Z,19.98
2019-01-21T01:10:37.381Z,20.58
2019-01-21T01:15:45.757Z,19.63
2019-01-21T01:20:54.166Z,20.10
2019-01-21T01:26:02.565Z,21.30
2019-01-21T01:31:12.139Z,22.00
2019-01-21T01:36:20.550Z,22.02
2019-01-21T01:41:29.024Z,22.26
2019-01-21T01:46:37.390Z,26.09
2019-01-21T01:51:45.791Z,21.22
2019-01-21T01:56:54.170Z,20.39
2019-01-21T02:02:03.664Z,22.40
2019-01-21T02:07:10.377Z,21.26
2019-01-21T02:12:18.853Z,23.53
2019-01-21T02:18:24.090Z,23.14
2019-01-21T02:23:32.441Z,23.33
2019-01-21T02:28:40.877Z,23.15
2019-01-21T02:33:49.302Z,24.49
2019-01-21T02:38:56.249Z,24.00
2019-01-21T02:44:04.628Z,24.03
2019-01-21T02:49:13.005Z,24.18
2019-01-21T02:54:21.485Z,23.16
2019-01-21T02:59:29.948Z,20.81
2019-01-21T03:04:38.364Z,22.11
2019-01-21T03:09:46.785Z,22.88
2019-01-21T03:14:55.374Z,21.64
2019-01-21T03:20:03.800Z,23.00
2019-01-21T03:25:12.164Z,23.12
2019-01-21T03:30:20.649Z,24.38
2019-01-21T03:35:29.055Z,23.67
2019-01-21T03:40:37.414Z,25.23
2019-01-21T03:45:45.948Z,22.82
2019-01-21T03:50:54.298Z,23.18
2019-01-21T03:56:02.672Z,22.68
2019-01-21T04:01:11.066Z,24.06
2019-01-21T04:06:19.461Z,23.03
2019-01-21T04:11:27.852Z,24.61
2019-01-21T04:16:36.348Z,25.51
2019-01-21T04:21:44.729Z,24.27
2019-01-21T04:26:53.271Z,23.36
2019-01-21T04:32:01.717Z,27.35
2019-01-21T04:37:10.093Z,23.20
2019-01-21T04:42:18.468Z,26.13
2019-01-21T04:47:26.872Z,21.69
2019-01-21T04:52:35.289Z,23.52
2019-01-21T04:57:43.679Z,24.02
2019-01-21T05:02:52.054Z,22.18
2019-01-21T05:08:00.462Z,25.98
2019-01-21T05:13:08.849Z,22.33
2019-01-21T05:18:17.240Z,24.55
2019-01-21T05:23:25.603Z,25.18
2019-01-21T05:28:34.030Z,23.99
2019-01-21T05:33:42.545Z,23.92
2019-01-21T05:38:50.932Z,22.22
2019-01-21T05:43:59.293Z,26.15
2019-01-21T05:49:07.662Z,23.86
2019-01-21T05:54:16.069Z,24.06
2019-01-21T05:59:24.501Z,25.65
2019-01-21T06:04:33.340Z,26.19
2019-01-21T06:09:41.725Z,26.18
2019-01-21T06:14:50.116Z,25.45
2019-01-21T06:19:58.552Z,25.42
2019-01-21T06:25:07.003Z,25.57
2019-01-21T06:30:15.650Z,26.37
2019-01-21T06:35:24.062Z,23.88
2019-01-21T06:40:32.441Z,25.37
2019-01-21T06:45:40.814Z,25.76
2019-01-21T06:50:49.305Z,26.41
2019-01-21T06:55:57.724Z,26.75
2019-01-21T07:01:06.218Z,25.48
2019-01-21T07:06:14.640Z,25.96
2019-01-21T07:11:23.298Z,26.85
2019-01-21T07:16:31.722Z,27.28
2019-01-21T07:26:47.340Z,28.82
2019-01-21T07:31:55.852Z,27.86
2019-01-21T07:37:04.645Z,28.61
2019-01-21T07:42:13.775Z,28.05
2019-01-21T07:47:22.196Z,28.58
2019-01-21T07:52:30.677Z,29.74
2019-01-21T07:57:39.100Z,29.72
2019-01-21T08:02:47.721Z,37.89
2019-01-21T08:07:56.352Z,29.67
2019-01-21T08:13:05.078Z,28.47
2019-01-21T08:18:13.480Z,29.27
2019-01-21T08:23:21.896Z,30.12
2019-01-21T08:28:30.310Z,29.50
2019-01-21T08:33:39.170Z,29.52
2019-01-21T08:38:47.909Z,28.99
2019-01-21T08:43:56.275Z,30.89
2019-01-21T08:49:04.717Z,31.48
2019-01-21T08:54:13.107Z,31.21
2019-01-21T08:59:21.585Z,27.39
2019-01-21T09:04:30.244Z,28.15
2019-01-21T09:09:38.775Z,31.19
2019-01-21T09:14:47.163Z,28.64
2019-01-21T09:19:55.838Z,26.17
2019-01-21T09:25:04.230Z,27.88
2019-01-21T09:30:12.781Z,29.12
2019-01-21T09:35:21.305Z,26.65
2019-01-21T09:40:29.755Z,28.03
2019-01-21T09:45:38.257Z,26.67
2019-01-21T09:50:46.657Z,25.99
2019-01-21T09:55:55.032Z,26.00
2019-01-21T10:01:03.634Z,31.15
2019-01-21T10:06:13.149Z,26.31
2019-01-21T10:11:21.587Z,25.32
2019-01-21T10:16:30.142Z,26.08
2019-01-21T10:21:38.580Z,28.16
2019-01-21T10:26:47.063Z,27.58
2019-01-21T10:31:59.359Z,26.11
2019-01-21T10:37:03.433Z,26.63
2019-01-21T10:42:11.970Z,26.25
2019-01-21T10:47:20.457Z,23.84
2019-01-21T10:52:28.962Z,25.86
2019-01-21T10:57:37.814Z,27.14
2019-01-21T11:02:46.357Z,25.53
2019-01-21T11:07:54.892Z,23.79
2019-01-21T11:13:03.351Z,23.29
2019-01-21T11:18:11.841Z,23.78
2019-01-21T11:23:20.771Z,21.75
2019-01-21T11:28:29.196Z,21.43
2019-01-21T11:33:37.709Z,23.18
2019-01-21T11:38:46.468Z,29.24
2019-01-21T11:43:53.649Z,22.94
2019-01-21T11:49:02.149Z,23.52
2019-01-21T11:54:10.593Z,22.35
2019-01-21T11:59:19.273Z,22.93
2019-01-21T12:04:27.766Z,23.43
2019-01-21T12:09:36.655Z,24.19
2019-01-21T12:14:45.121Z,24.14
2019-01-21T12:19:53.631Z,26.08
2019-01-21T12:25:02.217Z,24.89
2019-01-21T12:30:10.744Z,24.32
2019-01-21T12:35:19.123Z,21.61
2019-01-21T12:40:27.614Z,23.52
2019-01-21T12:45:36.024Z,21.96
2019-01-21T12:50:44.554Z,20.95
2019-01-21T12:55:53.097Z,21.04
2019-01-21T13:01:01.979Z,25.60
2019-01-21T13:06:10.461Z,22.19
2019-01-21T13:11:19.298Z,21.14
2019-01-21T13:16:27.766Z,24.41
2019-01-21T13:21:37.555Z,21.44
2019-01-21T13:26:46.382Z,22.57
2019-01-21T13:31:55.169Z,23.02
2019-01-21T13:37:03.668Z,24.74
2019-01-21T13:42:12.885Z,22.34
2019-01-21T13:47:19.910Z,22.40
2019-01-21T13:52:28.583Z,23.30
2019-01-21T13:57:37.431Z,21.89
2019-01-21T14:02:45.944Z,22.17
2019-01-21T14:07:54.328Z,22.95
2019-01-21T14:13:02.960Z,24.65
2019-01-21T14:18:11.397Z,25.23
2019-01-21T14:23:25.306Z,25.99
2019-01-21T14:28:28.099Z,22.01
2019-01-21T14:33:36.564Z,22.39
2019-01-21T14:38:45.107Z,23.17
2019-01-21T14:43:53.729Z,21.61
2019-01-21T14:49:04.781Z,24.40
2019-01-21T14:54:10.208Z,24.08
2019-01-21T14:59:18.874Z,25.66
2019-01-21T15:04:27.339Z,22.95
2019-01-21T15:09:35.710Z,22.58
2019-01-21T15:14:44.474Z,25.81
2019-01-21T15:19:52.868Z,23.75
2019-01-21T15:25:01.269Z,23.01
2019-01-21T15:30:09.907Z,25.75
2019-01-21T15:35:20.670Z,27.04
2019-01-21T15:40:26.318Z,26.28
2019-01-21T15:45:34.811Z,25.70
2019-01-21T15:50:43.145Z,27.64
2019-01-21T15:55:52.078Z,27.70
2019-01-21T16:01:00.520Z,27.88
2019-01-21T16:06:14.983Z,27.63
2019-01-21T16:11:13.387Z,31.19
2019-01-21T16:16:22.284Z,30.11
2019-01-21T16:21:30.750Z,27.60
2019-01-21T16:26:47.858Z,29.36
2019-01-21T16:31:46.282Z,31.09
2019-01-21T16:36:54.705Z,32.01
2019-01-21T16:42:03.086Z,31.06
2019-01-21T16:47:15.616Z,32.03
2019-01-21T16:52:14.023Z,32.17
2019-01-21T16:57:22.514Z,37.16
2019-01-21T17:02:29.576Z,34.87
2019-01-21T17:07:38.078Z,34.03
2019-01-21T17:12:46.451Z,36.41
2019-01-21T17:17:54.925Z,32.23
2019-01-21T17:23:03.936Z,37.73
2019-01-21T17:28:12.577Z,36.66
2019-01-21T17:33:21.055Z,33.63
2019-01-21T17:38:29.414Z,33.51
2019-01-21T17:43:37.953Z,32.07
2019-01-21T17:48:46.402Z,34.13
2019-01-21T17:53:54.760Z,34.40
2019-01-21T17:59:03.349Z,33.75
2019-01-21T18:04:11.733Z,34.54
2019-01-21T18:09:20.368Z,32.40
2019-01-21T18:14:29.163Z,34.11
2019-01-21T18:19:37.670Z,33.31
2019-01-21T18:24:47.376Z,31.69
2019-01-21T18:29:54.255Z,33.75
2019-01-21T18:35:02.722Z,33.53
2019-01-21T18:40:11.294Z,33.69
2019-01-21T18:45:19.688Z,31.85
2019-01-21T18:50:28.650Z,36.64
2019-01-21T18:55:45.711Z,36.73
2019-01-21T19:00:54.242Z,37.41
2019-01-21T19:06:02.893Z,35.10
2019-01-21T19:11:11.500Z,34.07
2019-01-21T19:16:20.185Z,34.07
2019-01-21T19:21:28.810Z,31.87
2019-01-21T19:26:37.214Z,32.28
2019-01-21T19:31:45.638Z,31.89
2019-01-21T19:36:54.173Z,30.43
2019-01-21T19:42:02.600Z,31.20
2019-01-21T19:47:10.968Z,31.33
2019-01-21T19:52:19.354Z,33.41
2019-01-21T19:57:27.819Z,37.33
2019-01-21T20:02:36.246Z,37.02
2019-01-21T20:07:44.679Z,35.37
2019-01-21T20:12:53.230Z,34.79
2019-01-21T20:18:01.685Z,34.69
2019-01-21T20:23:12.882Z,34.46
2019-01-21T20:28:11.237Z,35.06
2019-01-21T20:33:19.766Z,38.91
2019-01-21T20:38:28.400Z,39.17
2019-01-21T20:43:36.935Z,38.38
2019-01-21T20:48:45.701Z,37.99
2019-01-21T20:53:54.275Z,37.58
2019-01-21T20:59:02.663Z,38.93
2019-01-21T21:04:11.151Z,37.81
2019-01-21T21:09:19.570Z,43.39
2019-01-21T21:14:28.000Z,40.32
2019-01-21T21:19:36.432Z,42.20
2019-01-21T21:24:44.899Z,41.09
2019-01-21T21:29:53.573Z,41.07
2019-01-21T21:35:02.243Z,40.34
2019-01-21T21:40:10.593Z,39.89
2019-01-21T21:45:19.146Z,38.83
2019-01-21T21:50:26.070Z,36.94
2019-01-21T21:55:34.514Z,41.50
2019-01-21T22:00:42.441Z,37.61
2019-01-21T22:05:51.078Z,35.79
2019-01-21T22:10:59.392Z,32.57
2019-01-21T22:16:27.348Z,42.50
2019-01-21T22:21:25.637Z,38.21
2019-01-21T22:26:34.290Z,40.74
2019-01-21T22:31:42.686Z,41.39
2019-01-21T22:36:51.096Z,38.17
2019-01-21T22:41:59.487Z,42.48
2019-01-21T22:47:07.921Z,37.14
2019-01-21T22:52:16.373Z,41.94
2019-01-21T22:57:24.761Z,40.77
2019-01-21T23:02:33.129Z,43.44
2019-01-21T23:07:41.479Z,40.63
2019-01-21T23:12:49.883Z,42.68
2019-01-21T23:17:58.329Z,40.17
2019-01-21T23:23:06.645Z,41.26
2019-01-21T23:28:15.116Z,39.46
2019-01-21T23:33:23.590Z,36.79
2019-01-21T23:38:31.976Z,38.00
2019-01-21T23:43:40.433Z,39.51
2019-01-21T23:48:48.795Z,39.40
2019-01-21T23:53:57.196Z,37.61
2019-01-21T23:59:05.762Z,38.97
